sensor_id;sensor_type;location;lat;lon;timestamp;P1;durP1;ratioP1;P2;durP2;ratioP2
61702;SDS011;47622;47.726;3.298;2023-12-29T00:00:06;9.60;;;6.25;;
61702;SDS011;47622;47.726;3.298;2023-12-29T00:02:33;8.38;;;6.43;;
61702;SDS011;47622;47.726;3.298;2023-12-29T00:04:59;13.18;;;6.57;;
61702;SDS011;47622;47.726;3.298;2023-12-29T00:07:24;12.10;;;6.95;;
61702;SDS011;47622;47.726;3.298;2023-12-29T00:09:50;9.35;;;5.88;;
61702;SDS011;47622;47.726;3.298;2023-12-29T00:12:15;9.50;;;6.75;;
61702;SDS011;47622;47.726;3.298;2023-12-29T00:14:41;9.93;;;6.45;;
61702;SDS011;47622;47.726;3.298;2023-12-29T00:17:07;9.10;;;6.72;;
61702;SDS011;47622;47.726;3.298;2023-12-29T00:19:33;9.48;;;6.40;;
61702;SDS011;47622;47.726;3.298;2023-12-29T00:21:58;10.40;;;6.43;;
61702;SDS011;47622;47.726;3.298;2023-12-29T00:24:25;9.27;;;6.70;;
61702;SDS011;47622;47.726;3.298;2023-12-29T00:26:51;11.10;;;6.18;;
61702;SDS011;47622;47.726;3.298;2023-12-29T00:29:17;8.27;;;6.40;;
61702;SDS011;47622;47.726;3.298;2023-12-29T00:31:42;8.98;;;6.85;;
61702;SDS011;47622;47.726;3.298;2023-12-29T00:34:08;11.23;;;6.30;;
61702;SDS011;47622;47.726;3.298;2023-12-29T00:36:34;10.68;;;6.75;;
61702;SDS011;47622;47.726;3.298;2023-12-29T00:38:59;9.73;;;6.60;;
61702;SDS011;47622;47.726;3.298;2023-12-29T00:41:24;12.52;;;6.47;;
61702;SDS011;47622;47.726;3.298;2023-12-29T00:43:50;9.82;;;5.88;;
61702;SDS011;47622;47.726;3.298;2023-12-29T00:46:15;9.93;;;6.68;;
61702;SDS011;47622;47.726;3.298;2023-12-29T00:48:41;7.60;;;6.28;;
61702;SDS011;47622;47.726;3.298;2023-12-29T00:51:07;11.05;;;6.78;;
61702;SDS011;47622;47.726;3.298;2023-12-29T00:53:34;10.68;;;6.65;;
61702;SDS011;47622;47.726;3.298;2023-12-29T00:56:00;10.02;;;6.55;;
61702;SDS011;47622;47.726;3.298;2023-12-29T00:58:26;9.20;;;6.32;;
61702;SDS011;47622;47.726;3.298;2023-12-29T01:00:51;10.20;;;6.25;;
61702;SDS011;47622;47.726;3.298;2023-12-29T01:03:17;15.50;;;7.22;;
61702;SDS011;47622;47.726;3.298;2023-12-29T01:05:43;12.80;;;7.10;;
61702;SDS011;47622;47.726;3.298;2023-12-29T01:08:08;10.30;;;6.40;;
61702;SDS011;47622;47.726;3.298;2023-12-29T01:10:34;8.70;;;6.15;;
61702;SDS011;47622;47.726;3.298;2023-12-29T01:12:59;8.07;;;5.93;;
61702;SDS011;47622;47.726;3.298;2023-12-29T01:15:25;9.25;;;5.90;;
61702;SDS011;47622;47.726;3.298;2023-12-29T01:17:50;7.57;;;6.20;;
61702;SDS011;47622;47.726;3.298;2023-12-29T01:20:16;7.72;;;6.22;;
61702;SDS011;47622;47.726;3.298;2023-12-29T01:22:41;9.02;;;5.65;;
61702;SDS011;47622;47.726;3.298;2023-12-29T01:25:07;9.75;;;6.60;;
61702;SDS011;47622;47.726;3.298;2023-12-29T01:27:33;7.10;;;5.35;;
61702;SDS011;47622;47.726;3.298;2023-12-29T01:29:58;8.07;;;5.70;;
61702;SDS011;47622;47.726;3.298;2023-12-29T01:32:25;9.10;;;6.40;;
61702;SDS011;47622;47.726;3.298;2023-12-29T01:34:51;10.45;;;5.78;;
61702;SDS011;47622;47.726;3.298;2023-12-29T01:37:17;8.35;;;6.30;;
61702;SDS011;47622;47.726;3.298;2023-12-29T01:39:43;9.85;;;5.70;;
61702;SDS011;47622;47.726;3.298;2023-12-29T01:42:09;9.20;;;6.05;;
61702;SDS011;47622;47.726;3.298;2023-12-29T01:44:36;10.18;;;6.30;;
61702;SDS011;47622;47.726;3.298;2023-12-29T01:47:02;9.52;;;6.05;;
61702;SDS011;47622;47.726;3.298;2023-12-29T01:49:31;8.70;;;6.10;;
61702;SDS011;47622;47.726;3.298;2023-12-29T01:51:58;12.13;;;6.47;;
61702;SDS011;47622;47.726;3.298;2023-12-29T01:54:29;11.40;;;6.68;;
61702;SDS011;47622;47.726;3.298;2023-12-29T01:57:00;8.73;;;5.88;;
61702;SDS011;47622;47.726;3.298;2023-12-29T01:59:27;8.38;;;6.20;;
61702;SDS011;47622;47.726;3.298;2023-12-29T02:01:54;8.00;;;6.10;;
61702;SDS011;47622;47.726;3.298;2023-12-29T02:04:26;8.80;;;6.07;;
61702;SDS011;47622;47.726;3.298;2023-12-29T02:06:52;8.00;;;5.93;;
61702;SDS011;47622;47.726;3.298;2023-12-29T02:09:18;7.63;;;5.72;;
61702;SDS011;47622;47.726;3.298;2023-12-29T02:11:44;7.00;;;5.45;;
61702;SDS011;47622;47.726;3.298;2023-12-29T02:14:10;8.23;;;5.82;;
61702;SDS011;47622;47.726;3.298;2023-12-29T02:16:38;7.60;;;5.68;;
61702;SDS011;47622;47.726;3.298;2023-12-29T02:22:01;7.88;;;5.28;;
61702;SDS011;47622;47.726;3.298;2023-12-29T02:24:27;8.18;;;4.93;;
61702;SDS011;47622;47.726;3.298;2023-12-29T02:26:55;6.30;;;4.68;;
61702;SDS011;47622;47.726;3.298;2023-12-29T02:29:44;6.53;;;4.30;;
61702;SDS011;47622;47.726;3.298;2023-12-29T02:32:19;6.72;;;4.43;;
61702;SDS011;47622;47.726;3.298;2023-12-29T02:34:48;6.30;;;4.45;;
61702;SDS011;47622;47.726;3.298;2023-12-29T02:37:16;5.90;;;4.43;;
61702;SDS011;47622;47.726;3.298;2023-12-29T02:39:44;6.13;;;4.18;;
61702;SDS011;47622;47.726;3.298;2023-12-29T02:42:09;5.30;;;4.10;;
61702;SDS011;47622;47.726;3.298;2023-12-29T02:44:35;6.47;;;4.25;;
61702;SDS011;47622;47.726;3.298;2023-12-29T02:47:00;5.28;;;3.95;;
61702;SDS011;47622;47.726;3.298;2023-12-29T02:49:29;5.82;;;3.83;;
61702;SDS011;47622;47.726;3.298;2023-12-29T02:51:54;4.45;;;3.70;;
61702;SDS011;47622;47.726;3.298;2023-12-29T02:54:20;5.65;;;3.53;;
61702;SDS011;47622;47.726;3.298;2023-12-29T02:56:45;5.07;;;3.78;;
61702;SDS011;47622;47.726;3.298;2023-12-29T02:59:11;6.80;;;4.18;;
61702;SDS011;47622;47.726;3.298;2023-12-29T03:01:37;5.65;;;4.18;;
61702;SDS011;47622;47.726;3.298;2023-12-29T03:04:02;4.63;;;3.63;;
61702;SDS011;47622;47.726;3.298;2023-12-29T03:06:28;7.07;;;3.60;;
61702;SDS011;47622;47.726;3.298;2023-12-29T03:08:53;6.28;;;3.80;;
61702;SDS011;47622;47.726;3.298;2023-12-29T03:11:19;4.22;;;3.35;;
61702;SDS011;47622;47.726;3.298;2023-12-29T03:13:44;4.90;;;3.85;;
61702;SDS011;47622;47.726;3.298;2023-12-29T03:16:10;5.10;;;3.50;;
61702;SDS011;47622;47.726;3.298;2023-12-29T03:18:36;8.10;;;3.40;;
61702;SDS011;47622;47.726;3.298;2023-12-29T03:21:05;4.88;;;3.17;;
61702;SDS011;47622;47.726;3.298;2023-12-29T03:23:31;4.68;;;3.08;;
61702;SDS011;47622;47.726;3.298;2023-12-29T03:25:56;4.28;;;2.95;;
61702;SDS011;47622;47.726;3.298;2023-12-29T03:28:22;5.63;;;3.33;;
61702;SDS011;47622;47.726;3.298;2023-12-29T03:30:47;5.18;;;2.90;;
61702;SDS011;47622;47.726;3.298;2023-12-29T03:33:13;3.40;;;2.80;;
61702;SDS011;47622;47.726;3.298;2023-12-29T03:35:40;2.88;;;2.35;;
61702;SDS011;47622;47.726;3.298;2023-12-29T03:38:06;5.40;;;2.70;;
61702;SDS011;47622;47.726;3.298;2023-12-29T03:40:31;4.07;;;2.40;;
61702;SDS011;47622;47.726;3.298;2023-12-29T03:42:57;2.70;;;2.35;;
61702;SDS011;47622;47.726;3.298;2023-12-29T03:45:22;5.85;;;2.38;;
61702;SDS011;47622;47.726;3.298;2023-12-29T03:47:48;5.15;;;2.50;;
61702;SDS011;47622;47.726;3.298;2023-12-29T03:50:13;4.00;;;2.28;;
61702;SDS011;47622;47.726;3.298;2023-12-29T03:52:39;5.43;;;2.25;;
61702;SDS011;47622;47.726;3.298;2023-12-29T03:55:04;3.17;;;2.28;;
61702;SDS011;47622;47.726;3.298;2023-12-29T03:57:31;3.65;;;2.53;;
61702;SDS011;47622;47.726;3.298;2023-12-29T03:59:56;4.47;;;2.50;;
61702;SDS011;47622;47.726;3.298;2023-12-29T04:02:22;3.67;;;2.38;;
61702;SDS011;47622;47.726;3.298;2023-12-29T04:04:47;5.55;;;2.58;;
61702;SDS011;47622;47.726;3.298;2023-12-29T04:07:13;6.55;;;2.50;;
61702;SDS011;47622;47.726;3.298;2023-12-29T04:09:39;3.17;;;2.25;;
61702;SDS011;47622;47.726;3.298;2023-12-29T04:12:05;6.78;;;3.38;;
61702;SDS011;47622;47.726;3.298;2023-12-29T04:14:31;3.90;;;2.75;;
61702;SDS011;47622;47.726;3.298;2023-12-29T04:16:57;9.07;;;2.63;;
61702;SDS011;47622;47.726;3.298;2023-12-29T04:19:22;8.18;;;2.83;;
61702;SDS011;47622;47.726;3.298;2023-12-29T04:21:48;3.63;;;2.50;;
61702;SDS011;47622;47.726;3.298;2023-12-29T04:24:13;5.20;;;2.50;;
61702;SDS011;47622;47.726;3.298;2023-12-29T04:26:39;4.00;;;2.80;;
61702;SDS011;47622;47.726;3.298;2023-12-29T04:29:04;3.70;;;2.80;;
61702;SDS011;47622;47.726;3.298;2023-12-29T04:31:30;5.22;;;2.58;;
61702;SDS011;47622;47.726;3.298;2023-12-29T04:33:55;3.90;;;2.45;;
61702;SDS011;47622;47.726;3.298;2023-12-29T04:36:21;3.38;;;2.33;;
61702;SDS011;47622;47.726;3.298;2023-12-29T04:38:46;3.90;;;2.22;;
61702;SDS011;47622;47.726;3.298;2023-12-29T04:41:12;5.07;;;2.50;;
61702;SDS011;47622;47.726;3.298;2023-12-29T04:43:38;4.47;;;2.63;;
61702;SDS011;47622;47.726;3.298;2023-12-29T04:46:04;3.30;;;2.30;;
61702;SDS011;47622;47.726;3.298;2023-12-29T04:48:29;4.97;;;2.40;;
61702;SDS011;47622;47.726;3.298;2023-12-29T04:50:55;3.05;;;2.15;;
61702;SDS011;47622;47.726;3.298;2023-12-29T04:53:20;4.18;;;2.28;;
61702;SDS011;47622;47.726;3.298;2023-12-29T04:55:46;3.17;;;2.40;;
61702;SDS011;47622;47.726;3.298;2023-12-29T04:58:11;5.70;;;2.22;;
61702;SDS011;47622;47.726;3.298;2023-12-29T05:00:37;5.47;;;2.80;;
61702;SDS011;47622;47.726;3.298;2023-12-29T05:03:02;4.45;;;2.38;;
61702;SDS011;47622;47.726;3.298;2023-12-29T05:05:28;6.57;;;2.58;;
61702;SDS011;47622;47.726;3.298;2023-12-29T05:07:54;4.18;;;2.33;;
61702;SDS011;47622;47.726;3.298;2023-12-29T05:10:19;6.05;;;2.13;;
61702;SDS011;47622;47.726;3.298;2023-12-29T05:12:45;5.85;;;2.42;;
61702;SDS011;47622;47.726;3.298;2023-12-29T05:15:10;3.88;;;2.35;;
61702;SDS011;47622;47.726;3.298;2023-12-29T05:17:36;9.20;;;2.60;;
61702;SDS011;47622;47.726;3.298;2023-12-29T05:20:02;3.25;;;2.30;;
61702;SDS011;47622;47.726;3.298;2023-12-29T05:22:28;3.97;;;2.63;;
61702;SDS011;47622;47.726;3.298;2023-12-29T05:24:54;4.32;;;2.30;;
61702;SDS011;47622;47.726;3.298;2023-12-29T05:27:22;4.28;;;2.20;;
61702;SDS011;47622;47.726;3.298;2023-12-29T05:29:48;4.40;;;2.42;;
61702;SDS011;47622;47.726;3.298;2023-12-29T05:32:13;3.78;;;2.30;;
61702;SDS011;47622;47.726;3.298;2023-12-29T05:34:39;4.97;;;2.53;;
61702;SDS011;47622;47.726;3.298;2023-12-29T05:37:04;5.03;;;2.20;;
61702;SDS011;47622;47.726;3.298;2023-12-29T05:39:30;4.25;;;2.35;;
61702;SDS011;47622;47.726;3.298;2023-12-29T05:41:55;5.57;;;2.38;;
61702;SDS011;47622;47.726;3.298;2023-12-29T05:44:21;4.70;;;2.30;;
61702;SDS011;47622;47.726;3.298;2023-12-29T05:46:46;8.45;;;2.47;;
61702;SDS011;47622;47.726;3.298;2023-12-29T05:49:13;7.68;;;2.40;;
61702;SDS011;47622;47.726;3.298;2023-12-29T05:51:38;4.60;;;2.42;;
61702;SDS011;47622;47.726;3.298;2023-12-29T05:54:04;3.92;;;2.42;;
61702;SDS011;47622;47.726;3.298;2023-12-29T05:56:29;3.75;;;2.45;;
61702;SDS011;47622;47.726;3.298;2023-12-29T05:58:55;4.95;;;2.58;;
61702;SDS011;47622;47.726;3.298;2023-12-29T06:01:20;5.88;;;2.90;;
61702;SDS011;47622;47.726;3.298;2023-12-29T06:03:46;6.65;;;3.05;;
61702;SDS011;47622;47.726;3.298;2023-12-29T06:06:11;3.67;;;3.10;;
61702;SDS011;47622;47.726;3.298;2023-12-29T06:08:37;5.20;;;3.10;;
61702;SDS011;47622;47.726;3.298;2023-12-29T06:11:02;6.70;;;3.17;;
61702;SDS011;47622;47.726;3.298;2023-12-29T06:13:28;4.60;;;2.90;;
61702;SDS011;47622;47.726;3.298;2023-12-29T06:15:54;4.10;;;3.10;;
61702;SDS011;47622;47.726;3.298;2023-12-29T06:18:20;7.93;;;3.20;;
61702;SDS011;47622;47.726;3.298;2023-12-29T06:20:45;4.15;;;2.70;;
61702;SDS011;47622;47.726;3.298;2023-12-29T06:23:11;4.90;;;3.30;;
61702;SDS011;47622;47.726;3.298;2023-12-29T06:25:36;3.83;;;3.13;;
61702;SDS011;47622;47.726;3.298;2023-12-29T06:28:04;4.57;;;3.17;;
61702;SDS011;47622;47.726;3.298;2023-12-29T06:30:31;5.15;;;3.10;;
61702;SDS011;47622;47.726;3.298;2023-12-29T06:32:57;5.25;;;3.78;;
61702;SDS011;47622;47.726;3.298;2023-12-29T06:35:23;7.03;;;3.60;;
61702;SDS011;47622;47.726;3.298;2023-12-29T06:37:48;5.20;;;3.50;;
61702;SDS011;47622;47.726;3.298;2023-12-29T06:40:15;4.63;;;3.22;;
61702;SDS011;47622;47.726;3.298;2023-12-29T06:42:42;6.72;;;2.88;;
61702;SDS011;47622;47.726;3.298;2023-12-29T06:45:07;3.45;;;3.08;;
61702;SDS011;47622;47.726;3.298;2023-12-29T06:47:33;8.93;;;3.65;;
61702;SDS011;47622;47.726;3.298;2023-12-29T06:49:58;6.05;;;3.25;;
61702;SDS011;47622;47.726;3.298;2023-12-29T06:52:24;7.93;;;3.53;;
61702;SDS011;47622;47.726;3.298;2023-12-29T06:54:51;6.07;;;2.97;;
61702;SDS011;47622;47.726;3.298;2023-12-29T06:57:16;5.20;;;2.97;;
61702;SDS011;47622;47.726;3.298;2023-12-29T06:59:42;7.18;;;3.70;;
61702;SDS011;47622;47.726;3.298;2023-12-29T07:02:07;8.73;;;3.20;;
61702;SDS011;47622;47.726;3.298;2023-12-29T07:04:33;5.15;;;2.90;;
61702;SDS011;47622;47.726;3.298;2023-12-29T07:06:59;7.40;;;3.70;;
61702;SDS011;47622;47.726;3.298;2023-12-29T07:09:26;4.85;;;2.92;;
61702;SDS011;47622;47.726;3.298;2023-12-29T07:11:52;6.10;;;2.80;;
61702;SDS011;47622;47.726;3.298;2023-12-29T07:14:17;5.05;;;2.70;;
61702;SDS011;47622;47.726;3.298;2023-12-29T07:16:43;13.18;;;3.20;;
61702;SDS011;47622;47.726;3.298;2023-12-29T07:19:09;4.75;;;2.58;;
61702;SDS011;47622;47.726;3.298;2023-12-29T07:21:34;6.18;;;2.67;;
61702;SDS011;47622;47.726;3.298;2023-12-29T07:24:00;7.45;;;2.78;;
61702;SDS011;47622;47.726;3.298;2023-12-29T07:26:25;5.57;;;2.83;;
61702;SDS011;47622;47.726;3.298;2023-12-29T07:28:51;4.90;;;2.92;;
61702;SDS011;47622;47.726;3.298;2023-12-29T07:31:19;7.38;;;3.00;;
61702;SDS011;47622;47.726;3.298;2023-12-29T07:33:48;4.38;;;2.70;;
61702;SDS011;47622;47.726;3.298;2023-12-29T07:36:14;7.13;;;2.90;;
61702;SDS011;47622;47.726;3.298;2023-12-29T07:38:40;6.07;;;3.10;;
61702;SDS011;47622;47.726;3.298;2023-12-29T07:41:05;5.00;;;3.00;;
61702;SDS011;47622;47.726;3.298;2023-12-29T07:43:31;8.05;;;3.35;;
61702;SDS011;47622;47.726;3.298;2023-12-29T07:45:57;6.90;;;2.80;;
61702;SDS011;47622;47.726;3.298;2023-12-29T07:48:22;8.95;;;3.10;;
61702;SDS011;47622;47.726;3.298;2023-12-29T07:50:48;5.80;;;3.22;;
61702;SDS011;47622;47.726;3.298;2023-12-29T07:53:13;6.55;;;2.90;;
61702;SDS011;47622;47.726;3.298;2023-12-29T07:55:39;5.80;;;3.22;;
61702;SDS011;47622;47.726;3.298;2023-12-29T07:58:05;7.10;;;3.10;;
61702;SDS011;47622;47.726;3.298;2023-12-29T08:00:31;5.65;;;2.85;;
61702;SDS011;47622;47.726;3.298;2023-12-29T08:02:56;7.18;;;2.80;;
61702;SDS011;47622;47.726;3.298;2023-12-29T08:05:24;8.35;;;3.03;;
61702;SDS011;47622;47.726;3.298;2023-12-29T08:07:50;8.60;;;2.90;;
61702;SDS011;47622;47.726;3.298;2023-12-29T08:10:15;4.88;;;2.70;;
61702;SDS011;47622;47.726;3.298;2023-12-29T08:12:41;6.63;;;2.90;;
61702;SDS011;47622;47.726;3.298;2023-12-29T08:15:06;12.68;;;2.65;;
61702;SDS011;47622;47.726;3.298;2023-12-29T08:17:32;9.20;;;3.17;;
61702;SDS011;47622;47.726;3.298;2023-12-29T08:19:58;5.55;;;2.50;;
61702;SDS011;47622;47.726;3.298;2023-12-29T08:22:24;6.35;;;2.60;;
61702;SDS011;47622;47.726;3.298;2023-12-29T08:24:49;7.93;;;2.50;;
61702;SDS011;47622;47.726;3.298;2023-12-29T08:27:21;8.38;;;2.80;;
61702;SDS011;47622;47.726;3.298;2023-12-29T08:29:48;10.80;;;3.00;;
61702;SDS011;47622;47.726;3.298;2023-12-29T08:32:14;6.15;;;2.78;;
61702;SDS011;47622;47.726;3.298;2023-12-29T08:34:40;9.10;;;2.90;;
61702;SDS011;47622;47.726;3.298;2023-12-29T08:37:05;8.13;;;3.00;;
61702;SDS011;47622;47.726;3.298;2023-12-29T08:39:31;6.43;;;2.60;;
61702;SDS011;47622;47.726;3.298;2023-12-29T08:41:56;6.55;;;2.70;;
61702;SDS011;47622;47.726;3.298;2023-12-29T08:44:22;4.95;;;2.75;;
61702;SDS011;47622;47.726;3.298;2023-12-29T08:46:47;10.23;;;3.10;;
61702;SDS011;47622;47.726;3.298;2023-12-29T08:49:13;7.88;;;2.70;;
61702;SDS011;47622;47.726;3.298;2023-12-29T08:51:38;7.03;;;2.72;;
61702;SDS011;47622;47.726;3.298;2023-12-29T08:54:04;5.82;;;2.90;;
61702;SDS011;47622;47.726;3.298;2023-12-29T08:56:30;3.53;;;2.30;;
61702;SDS011;47622;47.726;3.298;2023-12-29T08:58:55;8.55;;;3.00;;
61702;SDS011;47622;47.726;3.298;2023-12-29T09:01:21;4.68;;;2.38;;
61702;SDS011;47622;47.726;3.298;2023-12-29T09:03:46;8.48;;;3.10;;
61702;SDS011;47622;47.726;3.298;2023-12-29T09:06:12;9.65;;;2.97;;
61702;SDS011;47622;47.726;3.298;2023-12-29T09:08:37;7.38;;;2.67;;
61702;SDS011;47622;47.726;3.298;2023-12-29T09:11:03;6.88;;;2.88;;
61702;SDS011;47622;47.726;3.298;2023-12-29T09:13:29;7.68;;;2.88;;
61702;SDS011;47622;47.726;3.298;2023-12-29T09:15:55;7.18;;;3.40;;
61702;SDS011;47622;47.726;3.298;2023-12-29T09:18:20;4.32;;;3.10;;
61702;SDS011;47622;47.726;3.298;2023-12-29T09:20:46;9.93;;;3.30;;
61702;SDS011;47622;47.726;3.298;2023-12-29T09:23:12;7.15;;;3.05;;
61702;SDS011;47622;47.726;3.298;2023-12-29T09:25:38;11.23;;;3.40;;
61702;SDS011;47622;47.726;3.298;2023-12-29T09:28:03;9.27;;;2.80;;
61702;SDS011;47622;47.726;3.298;2023-12-29T09:30:29;9.48;;;3.42;;
61702;SDS011;47622;47.726;3.298;2023-12-29T09:32:55;8.10;;;3.40;;
61702;SDS011;47622;47.726;3.298;2023-12-29T09:35:20;10.35;;;3.33;;
61702;SDS011;47622;47.726;3.298;2023-12-29T09:37:47;9.50;;;3.40;;
61702;SDS011;47622;47.726;3.298;2023-12-29T09:40:13;8.07;;;3.25;;
61702;SDS011;47622;47.726;3.298;2023-12-29T09:42:40;10.32;;;3.92;;
61702;SDS011;47622;47.726;3.298;2023-12-29T09:45:10;8.18;;;3.25;;
61702;SDS011;47622;47.726;3.298;2023-12-29T09:47:38;4.05;;;2.67;;
61702;SDS011;47622;47.726;3.298;2023-12-29T09:50:06;9.02;;;3.30;;
61702;SDS011;47622;47.726;3.298;2023-12-29T09:52:35;5.28;;;2.80;;
61702;SDS011;47622;47.726;3.298;2023-12-29T09:55:03;12.52;;;3.42;;
61702;SDS011;47622;47.726;3.298;2023-12-29T09:57:34;8.90;;;3.28;;
61702;SDS011;47622;47.726;3.298;2023-12-29T10:00:00;7.05;;;3.08;;
61702;SDS011;47622;47.726;3.298;2023-12-29T10:02:27;7.03;;;2.88;;
61702;SDS011;47622;47.726;3.298;2023-12-29T10:04:55;8.88;;;2.90;;
61702;SDS011;47622;47.726;3.298;2023-12-29T10:07:24;9.52;;;3.20;;
61702;SDS011;47622;47.726;3.298;2023-12-29T10:12:23;8.13;;;2.67;;
61702;SDS011;47622;47.726;3.298;2023-12-29T10:15:06;7.80;;;2.75;;
61702;SDS011;47622;47.726;3.298;2023-12-29T10:17:48;6.45;;;3.03;;
61702;SDS011;47622;47.726;3.298;2023-12-29T10:22:51;7.10;;;2.45;;
61702;SDS011;47622;47.726;3.298;2023-12-29T10:25:29;6.45;;;2.45;;
61702;SDS011;47622;47.726;3.298;2023-12-29T10:27:55;6.05;;;2.40;;
61702;SDS011;47622;47.726;3.298;2023-12-29T10:30:22;8.77;;;2.45;;
61702;SDS011;47622;47.726;3.298;2023-12-29T10:32:50;11.35;;;2.60;;
61702;SDS011;47622;47.726;3.298;2023-12-29T10:35:17;9.82;;;2.60;;
61702;SDS011;47622;47.726;3.298;2023-12-29T10:37:43;7.45;;;2.78;;
61702;SDS011;47622;47.726;3.298;2023-12-29T10:40:09;8.00;;;2.95;;
61702;SDS011;47622;47.726;3.298;2023-12-29T10:42:52;11.85;;;2.40;;
61702;SDS011;47622;47.726;3.298;2023-12-29T10:45:18;7.82;;;2.60;;
61702;SDS011;47622;47.726;3.298;2023-12-29T10:47:44;8.63;;;2.17;;
61702;SDS011;47622;47.726;3.298;2023-12-29T10:50:10;9.25;;;2.58;;
61702;SDS011;47622;47.726;3.298;2023-12-29T10:52:35;7.72;;;2.28;;
61702;SDS011;47622;47.726;3.298;2023-12-29T10:55:06;9.23;;;2.45;;
61702;SDS011;47622;47.726;3.298;2023-12-29T10:57:33;7.28;;;2.20;;
61702;SDS011;47622;47.726;3.298;2023-12-29T10:59:59;9.25;;;2.20;;
61702;SDS011;47622;47.726;3.298;2023-12-29T11:02:28;7.82;;;2.42;;
61702;SDS011;47622;47.726;3.298;2023-12-29T11:05:15;5.05;;;2.50;;
61702;SDS011;47622;47.726;3.298;2023-12-29T11:07:41;5.47;;;2.03;;
61702;SDS011;47622;47.726;3.298;2023-12-29T11:10:07;4.78;;;2.38;;
61702;SDS011;47622;47.726;3.298;2023-12-29T11:12:37;9.27;;;2.67;;
61702;SDS011;47622;47.726;3.298;2023-12-29T11:15:06;10.70;;;2.30;;
61702;SDS011;47622;47.726;3.298;2023-12-29T11:17:33;12.30;;;2.17;;
61702;SDS011;47622;47.726;3.298;2023-12-29T11:20:00;8.32;;;1.98;;
61702;SDS011;47622;47.726;3.298;2023-12-29T11:22:31;9.23;;;2.22;;
61702;SDS011;47622;47.726;3.298;2023-12-29T11:24:57;8.95;;;2.38;;
61702;SDS011;47622;47.726;3.298;2023-12-29T11:27:27;8.15;;;2.58;;
61702;SDS011;47622;47.726;3.298;2023-12-29T11:29:55;7.65;;;2.10;;
61702;SDS011;47622;47.726;3.298;2023-12-29T11:32:47;7.35;;;2.03;;
61702;SDS011;47622;47.726;3.298;2023-12-29T11:38:04;13.65;;;2.80;;
61702;SDS011;47622;47.726;3.298;2023-12-29T11:40:38;9.55;;;2.75;;
61702;SDS011;47622;47.726;3.298;2023-12-29T11:43:13;10.80;;;2.53;;
61702;SDS011;47622;47.726;3.298;2023-12-29T11:45:41;8.48;;;2.95;;
61702;SDS011;47622;47.726;3.298;2023-12-29T11:48:07;7.22;;;2.10;;
61702;SDS011;47622;47.726;3.298;2023-12-29T11:50:34;9.13;;;2.42;;
61702;SDS011;47622;47.726;3.298;2023-12-29T11:53:02;8.60;;;2.40;;
61702;SDS011;47622;47.726;3.298;2023-12-29T11:55:28;6.95;;;2.33;;
61702;SDS011;47622;47.726;3.298;2023-12-29T11:57:56;9.18;;;2.72;;
61702;SDS011;47622;47.726;3.298;2023-12-29T12:00:41;8.20;;;2.42;;
61702;SDS011;47622;47.726;3.298;2023-12-29T12:03:22;7.72;;;2.50;;
61702;SDS011;47622;47.726;3.298;2023-12-29T12:05:50;5.25;;;2.20;;
61702;SDS011;47622;47.726;3.298;2023-12-29T12:08:31;7.55;;;2.33;;
61702;SDS011;47622;47.726;3.298;2023-12-29T12:13:59;6.70;;;2.53;;
61702;SDS011;47622;47.726;3.298;2023-12-29T12:19:13;10.25;;;2.35;;
61702;SDS011;47622;47.726;3.298;2023-12-29T12:21:39;8.77;;;2.35;;
61702;SDS011;47622;47.726;3.298;2023-12-29T12:24:06;10.65;;;2.58;;
61702;SDS011;47622;47.726;3.298;2023-12-29T12:26:32;7.93;;;2.08;;
61702;SDS011;47622;47.726;3.298;2023-12-29T12:29:00;10.25;;;3.03;;
61702;SDS011;47622;47.726;3.298;2023-12-29T12:31:26;10.15;;;3.03;;
61702;SDS011;47622;47.726;3.298;2023-12-29T12:33:54;8.38;;;2.33;;
61702;SDS011;47622;47.726;3.298;2023-12-29T12:36:25;9.68;;;2.10;;
61702;SDS011;47622;47.726;3.298;2023-12-29T12:38:55;9.32;;;2.50;;
61702;SDS011;47622;47.726;3.298;2023-12-29T12:41:21;14.73;;;2.17;;
61702;SDS011;47622;47.726;3.298;2023-12-29T12:46:44;5.38;;;2.35;;
61702;SDS011;47622;47.726;3.298;2023-12-29T12:49:20;8.82;;;2.00;;
61702;SDS011;47622;47.726;3.298;2023-12-29T12:51:46;5.68;;;2.10;;
61702;SDS011;47622;47.726;3.298;2023-12-29T12:54:12;11.45;;;2.05;;
61702;SDS011;47622;47.726;3.298;2023-12-29T12:56:42;9.07;;;2.10;;
61702;SDS011;47622;47.726;3.298;2023-12-29T12:59:08;8.68;;;2.20;;
61702;SDS011;47622;47.726;3.298;2023-12-29T13:01:35;6.95;;;2.53;;
61702;SDS011;47622;47.726;3.298;2023-12-29T13:04:02;9.43;;;2.13;;
61702;SDS011;47622;47.726;3.298;2023-12-29T13:06:30;4.90;;;2.00;;
61702;SDS011;47622;47.726;3.298;2023-12-29T13:08:57;8.93;;;2.45;;
61702;SDS011;47622;47.726;3.298;2023-12-29T13:11:24;11.25;;;3.28;;
61702;SDS011;47622;47.726;3.298;2023-12-29T13:13:51;6.85;;;2.20;;
61702;SDS011;47622;47.726;3.298;2023-12-29T13:18:55;9.07;;;2.13;;
61702;SDS011;47622;47.726;3.298;2023-12-29T13:21:21;5.72;;;2.33;;
61702;SDS011;47622;47.726;3.298;2023-12-29T13:23:47;8.38;;;2.25;;
61702;SDS011;47622;47.726;3.298;2023-12-29T13:26:13;8.73;;;2.22;;
61702;SDS011;47622;47.726;3.298;2023-12-29T13:28:39;7.03;;;2.20;;
61702;SDS011;47622;47.726;3.298;2023-12-29T13:31:05;5.22;;;2.05;;
61702;SDS011;47622;47.726;3.298;2023-12-29T13:36:38;7.93;;;1.98;;
61702;SDS011;47622;47.726;3.298;2023-12-29T13:42:20;6.35;;;2.05;;
61702;SDS011;47622;47.726;3.298;2023-12-29T13:44:48;5.63;;;1.90;;
61702;SDS011;47622;47.726;3.298;2023-12-29T13:47:16;3.97;;;1.90;;
61702;SDS011;47622;47.726;3.298;2023-12-29T13:49:42;4.80;;;2.00;;
61702;SDS011;47622;47.726;3.298;2023-12-29T13:52:08;6.65;;;2.28;;
61702;SDS011;47622;47.726;3.298;2023-12-29T13:54:40;9.57;;;2.20;;
61702;SDS011;47622;47.726;3.298;2023-12-29T13:57:09;8.43;;;1.98;;
61702;SDS011;47622;47.726;3.298;2023-12-29T13:59:35;5.03;;;1.60;;
61702;SDS011;47622;47.726;3.298;2023-12-29T14:02:47;8.38;;;2.40;;
61702;SDS011;47622;47.726;3.298;2023-12-29T14:05:09;5.72;;;1.83;;
61702;SDS011;47622;47.726;3.298;2023-12-29T14:07:37;8.30;;;2.25;;
61702;SDS011;47622;47.726;3.298;2023-12-29T14:10:10;7.47;;;2.20;;
61702;SDS011;47622;47.726;3.298;2023-12-29T14:12:36;8.10;;;2.00;;
61702;SDS011;47622;47.726;3.298;2023-12-29T14:15:02;6.20;;;1.63;;
61702;SDS011;47622;47.726;3.298;2023-12-29T14:17:29;6.95;;;2.25;;
61702;SDS011;47622;47.726;3.298;2023-12-29T14:19:55;10.18;;;2.25;;
61702;SDS011;47622;47.726;3.298;2023-12-29T14:22:21;6.22;;;1.88;;
61702;SDS011;47622;47.726;3.298;2023-12-29T14:25:00;5.78;;;1.88;;
61702;SDS011;47622;47.726;3.298;2023-12-29T14:27:35;5.30;;;2.00;;
61702;SDS011;47622;47.726;3.298;2023-12-29T14:30:01;5.57;;;1.90;;
61702;SDS011;47622;47.726;3.298;2023-12-29T14:32:26;11.52;;;2.40;;
61702;SDS011;47622;47.726;3.298;2023-12-29T14:34:55;5.50;;;1.98;;
61702;SDS011;47622;47.726;3.298;2023-12-29T14:37:21;8.32;;;2.05;;
61702;SDS011;47622;47.726;3.298;2023-12-29T14:39:50;5.22;;;1.80;;
61702;SDS011;47622;47.726;3.298;2023-12-29T14:42:17;8.48;;;2.08;;
61702;SDS011;47622;47.726;3.298;2023-12-29T14:44:47;7.50;;;2.08;;
61702;SDS011;47622;47.726;3.298;2023-12-29T14:47:13;6.05;;;2.08;;
61702;SDS011;47622;47.726;3.298;2023-12-29T14:49:40;7.07;;;2.05;;
61702;SDS011;47622;47.726;3.298;2023-12-29T14:52:06;7.05;;;1.90;;
61702;SDS011;47622;47.726;3.298;2023-12-29T14:54:31;8.85;;;2.40;;
61702;SDS011;47622;47.726;3.298;2023-12-29T14:56:57;6.60;;;1.88;;
61702;SDS011;47622;47.726;3.298;2023-12-29T14:59:23;9.40;;;2.20;;
61702;SDS011;47622;47.726;3.298;2023-12-29T15:01:48;11.73;;;2.60;;
61702;SDS011;47622;47.726;3.298;2023-12-29T15:04:14;6.88;;;2.22;;
61702;SDS011;47622;47.726;3.298;2023-12-29T15:06:40;6.25;;;2.10;;
61702;SDS011;47622;47.726;3.298;2023-12-29T15:09:05;7.75;;;2.60;;
61702;SDS011;47622;47.726;3.298;2023-12-29T15:11:32;5.93;;;2.20;;